Time;durP1;ratioP1;P1;durP2;ratioP2;P2;SDS_P1;SDS_P2;PMS_P1;PMS_P2;Temp;Humidity;BMP_temperature;BMP_pressure;BME280_temperature;BME280_humidity;BME280_pressure;Samples;Min_cycle;Max_cycle;Signal;HPM_P1;HPM_P2
2022/08/23 00:02:07;;;;;;;0.10;0.08;;;27.90;46.40;;;;;;5088659;28;20128;-53
2022/08/23 00:04:39;;;;;;;0.08;0.00;;;27.90;46.40;;;;;;5088236;28;20113;-53
2022/08/23 00:07:09;;;;;;;0.47;0.00;;;27.90;46.40;;;;;;5088483;28;20147;-51
2022/08/23 00:09:36;;;;;;;0.00;0.00;;;27.90;46.50;;;;;;5089698;28;20141;-53
2022/08/23 00:12:09;;;;;;;0.20;0.00;;;27.90;46.50;;;;;;5089938;28;20055;-55
2022/08/23 00:14:39;;;;;;;1.38;0.00;;;27.90;46.50;;;;;;5089316;28;20123;-54
2022/08/23 00:17:07;;;;;;;0.00;0.00;;;27.90;46.50;;;;;;5100766;28;20214;-53
2022/08/23 00:19:35;;;;;;;0.47;0.00;;;27.90;46.50;;;;;;5108766;28;20528;-51
2022/08/23 00:22:03;;;;;;;0.10;0.10;;;27.90;46.50;;;;;;5108236;28;20497;-52
2022/08/23 00:24:30;;;;;;;0.00;0.00;;;27.90;47.20;;;;;;5108679;28;20068;-51
2022/08/23 00:27:01;;;;;;;0.45;0.10;;;27.80;46.50;;;;;;5067990;28;20416;-50
2022/08/23 00:29:35;;;;;;;0.00;0.00;;;27.80;46.50;;;;;;5060747;28;20051;-49
2022/08/23 00:32:02;;;;;;;0.00;0.00;;;27.80;46.60;;;;;;5070184;28;20105;-53
2022/08/23 00:34:30;;;;;;;0.00;0.00;;;27.80;46.60;;;;;;5088255;28;20109;-50
2022/08/23 00:36:57;;;;;;;0.00;0.00;;;27.80;46.60;;;;;;5097910;28;20044;-50
2022/08/23 00:39:25;;;;;;;0.10;0.00;;;27.80;46.70;;;;;;5108751;28;20538;-50
2022/08/23 00:41:56;;;;;;;0.43;0.00;;;27.80;46.70;;;;;;5072251;28;20496;-50
2022/08/23 00:50:15;;;;;;;0.00;0.00;;;27.80;46.70;;;;;;5069712;28;20042;-53
2022/08/23 00:52:53;;;;;;;0.00;0.00;;;27.80;46.80;;;;;;5070109;28;20118;-52
2022/08/23 00:55:21;;;;;;;0.03;0.00;;;27.80;46.80;;;;;;5069976;28;20036;-51
2022/08/23 00:57:48;;;;;;;0.00;0.00;;;27.80;46.90;;;;;;5090956;28;20043;-49
2022/08/23 01:00:15;;;;;;;0.05;0.03;;;27.80;46.80;;;;;;5092316;28;20044;-49
2022/08/23 01:02:46;;;;;;;0.10;0.00;;;27.80;46.90;;;;;;5092039;28;20040;-50
2022/08/23 01:05:14;;;;;;;0.00;0.00;;;27.80;46.90;;;;;;5073391;28;20098;-51
2022/08/23 01:07:47;;;;;;;0.00;0.00;;;27.80;46.90;;;;;;5091746;28;20044;-51
2022/08/23 01:10:23;;;;;;;0.20;0.00;;;27.80;46.90;;;;;;5108045;28;20056;-50
2022/08/23 01:12:56;;;;;;;0.00;0.00;;;27.70;46.90;;;;;;5092020;28;20055;-53
2022/08/23 01:15:28;;;;;;;0.00;0.00;;;27.80;46.90;;;;;;5091486;28;20048;-49
2022/08/23 01:18:01;;;;;;;0.00;0.00;;;27.80;46.90;;;;;;5091544;28;20122;-54
2022/08/23 01:20:34;;;;;;;0.00;0.00;;;27.80;46.90;;;;;;5091445;28;20040;-51
2022/08/23 01:23:06;;;;;;;0.63;0.00;;;27.80;47.00;;;;;;5090412;28;20036;-50
2022/08/23 01:25:35;;;;;;;0.22;0.00;;;27.70;46.90;;;;;;5091540;28;20086;-50
2022/08/23 01:28:02;;;;;;;0.55;0.00;;;27.70;46.90;;;;;;5056396;28;20504;-52
2022/08/23 01:30:32;;;;;;;0.00;0.00;;;27.80;47.00;;;;;;5073354;28;20047;-53
2022/08/23 01:33:02;;;;;;;0.10;0.00;;;27.80;47.00;;;;;;5073338;28;20047;-52
2022/08/23 01:35:36;;;;;;;0.00;0.00;;;27.80;47.00;;;;;;5072997;28;20460;-52
2022/08/23 01:38:04;;;;;;;0.00;0.00;;;27.80;47.00;;;;;;5073430;28;20048;-51
2022/08/23 01:40:31;;;;;;;0.00;0.00;;;27.70;47.00;;;;;;5091322;28;20044;-53
2022/08/23 01:43:01;;;;;;;0.10;0.00;;;27.70;47.00;;;;;;5073308;28;20796;-51
2022/08/23 01:45:30;;;;;;;0.00;0.00;;;27.70;47.00;;;;;;5073044;28;20048;-52
2022/08/23 01:47:58;;;;;;;0.05;0.00;;;27.80;47.10;;;;;;5072879;28;20044;-51
2022/08/23 01:50:28;;;;;;;0.00;0.00;;;27.70;47.00;;;;;;5072952;28;20047;-49
2022/08/23 01:52:55;;;;;;;0.15;0.00;;;27.70;47.00;;;;;;5072992;28;20123;-49
2022/08/23 01:55:24;;;;;;;0.00;0.00;;;27.70;47.00;;;;;;5073038;28;20113;-52
2022/08/23 01:57:55;;;;;;;0.00;0.00;;;27.70;47.10;;;;;;5091085;28;20516;-49
2022/08/23 02:00:28;;;;;;;0.00;0.00;;;27.70;47.10;;;;;;5056208;28;20123;-50
2022/08/23 02:02:55;;;;;;;0.00;0.00;;;27.70;47.10;;;;;;5072297;28;20074;-49
2022/08/23 02:05:23;;;;;;;0.00;0.00;;;27.70;47.20;;;;;;5090784;28;20040;-52
2022/08/23 02:07:50;;;;;;;0.00;0.00;;;27.70;47.80;;;;;;5072005;28;20048;-51
2022/08/23 02:10:18;;;;;;;0.00;0.00;;;27.70;47.20;;;;;;5055833;28;20046;-52
2022/08/23 02:12:45;;;;;;;0.08;0.00;;;27.70;47.20;;;;;;5090950;28;20479;-52
2022/08/23 02:15:16;;;;;;;0.00;0.00;;;27.70;47.20;;;;;;5072733;28;20047;-48
2022/08/23 02:17:48;;;;;;;0.00;0.00;;;27.70;47.80;;;;;;5089985;28;20416;-50
2022/08/23 02:20:16;;;;;;;0.00;0.00;;;27.70;47.20;;;;;;5090656;28;20127;-49
2022/08/23 02:22:43;;;;;;;0.10;0.00;;;27.70;47.30;;;;;;5073821;28;20466;-49
2022/08/23 02:25:10;;;;;;;0.47;0.00;;;27.70;47.30;;;;;;5092557;28;20035;-53
2022/08/23 02:27:37;;;;;;;0.17;0.03;;;27.70;47.30;;;;;;5110695;28;20044;-49
2022/08/23 02:30:05;;;;;;;0.00;0.00;;;27.70;47.30;;;;;;5075459;28;20051;-55
2022/08/23 02:32:33;;;;;;;0.00;0.00;;;27.70;47.30;;;;;;5091942;28;20046;-48
2022/08/23 02:35:01;;;;;;;0.00;0.00;;;27.70;47.40;;;;;;5092342;28;20044;-50
2022/08/23 02:37:28;;;;;;;0.00;0.00;;;27.70;47.40;;;;;;5092416;28;20046;-50
2022/08/23 02:39:56;;;;;;;0.00;0.00;;;27.70;47.40;;;;;;5090734;28;20051;-52
2022/08/23 02:42:23;;;;;;;0.08;0.00;;;27.70;47.40;;;;;;5071949;28;20044;-49
2022/08/23 02:44:50;;;;;;;0.88;0.00;;;27.70;47.50;;;;;;5090212;28;20119;-53
2022/08/23 02:47:17;;;;;;;0.00;0.00;;;27.70;47.50;;;;;;5071235;28;20461;-51
2022/08/23 02:49:53;;;;;;;0.20;0.00;;;27.70;47.50;;;;;;5071837;28;20047;-51
2022/08/23 02:52:22;;;;;;;0.00;0.00;;;27.70;47.50;;;;;;5071651;28;20113;-49
2022/08/23 02:54:49;;;;;;;0.00;0.00;;;27.70;47.60;;;;;;5071814;28;20080;-52
2022/08/23 02:57:16;;;;;;;0.13;0.00;;;27.60;47.50;;;;;;5090029;28;20722;-51
2022/08/23 02:59:43;;;;;;;0.00;0.00;;;27.70;47.60;;;;;;5071696;28;20443;-51
2022/08/23 03:02:11;;;;;;;0.00;0.00;;;27.60;47.50;;;;;;5071351;28;20040;-51
2022/08/23 03:04:41;;;;;;;0.75;0.00;;;27.60;47.50;;;;;;5071314;28;20040;-54
2022/08/23 03:07:08;;;;;;;0.00;0.00;;;27.70;47.60;;;;;;5072035;28;20456;-50
2022/08/23 03:09:38;;;;;;;0.00;0.00;;;27.70;47.60;;;;;;5090462;28;20035;-54
2022/08/23 03:12:05;;;;;;;0.25;0.00;;;27.70;47.60;;;;;;5071779;28;20055;-50
2022/08/23 03:14:36;;;;;;;0.00;0.00;;;27.60;47.60;;;;;;5071499;28;20449;-49
2022/08/23 03:17:04;;;;;;;0.00;0.00;;;27.60;47.60;;;;;;5070463;28;20556;-52
2022/08/23 03:19:31;;;;;;;0.20;0.00;;;27.60;47.60;;;;;;5070043;28;20044;-50
2022/08/23 03:21:58;;;;;;;0.40;0.10;;;27.60;47.70;;;;;;5089445;28;20127;-52
2022/08/23 03:24:25;;;;;;;0.03;0.00;;;27.70;47.70;;;;;;5071174;28;20115;-51
2022/08/23 03:26:54;;;;;;;0.00;0.00;;;27.60;47.70;;;;;;5070870;28;20119;-51
2022/08/23 03:29:22;;;;;;;0.00;0.00;;;27.60;47.70;;;;;;5070954;28;20089;-51
2022/08/23 03:32:09;;;;;;;0.10;0.00;;;27.60;47.70;;;;;;5088526;28;20462;-53
2022/08/23 03:34:38;;;;;;;0.00;0.00;;;27.60;47.80;;;;;;5071052;28;20093;-52
2022/08/23 03:37:07;;;;;;;0.00;0.00;;;27.60;47.80;;;;;;5071018;28;20052;-50
2022/08/23 03:39:35;;;;;;;0.88;0.00;;;27.60;47.80;;;;;;5070992;28;20048;-50
2022/08/23 03:42:04;;;;;;;0.00;0.00;;;27.60;47.80;;;;;;5067071;28;20063;-49
2022/08/23 03:44:33;;;;;;;0.08;0.00;;;27.60;47.90;;;;;;5066962;28;20551;-49
2022/08/23 03:47:02;;;;;;;0.10;0.10;;;27.60;47.80;;;;;;5066963;28;20398;-53
2022/08/23 03:49:29;;;;;;;0.30;0.00;;;27.60;47.80;;;;;;5075457;28;20032;-52
2022/08/23 03:51:59;;;;;;;0.00;0.00;;;27.60;47.90;;;;;;5070645;28;20044;-49
2022/08/23 03:54:26;;;;;;;0.00;0.00;;;27.60;47.90;;;;;;5070518;28;20040;-50
2022/08/23 03:56:58;;;;;;;0.00;0.00;;;27.60;47.90;;;;;;5070601;28;20523;-55
2022/08/23 03:59:27;;;;;;;0.00;0.00;;;27.60;47.90;;;;;;5070491;28;20059;-54
2022/08/23 04:01:55;;;;;;;1.85;0.00;;;27.60;47.90;;;;;;5070315;28;20109;-54
2022/08/23 04:04:22;;;;;;;0.00;0.00;;;27.60;47.90;;;;;;5088473;28;20083;-53
2022/08/23 04:07:21;;;;;;;0.00;0.00;;;27.60;48.00;;;;;;5070326;28;20043;-54
2022/08/23 04:09:53;;;;;;;0.25;0.25;;;27.60;48.00;;;;;;5070323;28;20040;-54
2022/08/23 04:12:20;;;;;;;0.38;0.00;;;27.60;48.10;;;;;;5070370;28;20052;-53
2022/08/23 04:14:49;;;;;;;0.00;0.00;;;27.60;48.10;;;;;;5090091;28;20043;-52
2022/08/23 04:17:19;;;;;;;0.22;0.00;;;27.60;48.10;;;;;;5071158;28;20118;-51
2022/08/23 04:19:47;;;;;;;0.00;0.00;;;27.60;48.10;;;;;;5070427;28;20054;-51
2022/08/23 04:22:16;;;;;;;0.20;0.10;;;27.60;48.70;;;;;;5070380;28;20090;-52
2022/08/23 04:24:45;;;;;;;0.00;0.00;;;27.50;48.10;;;;;;5070287;28;20044;-52
2022/08/23 04:27:12;;;;;;;0.10;0.00;;;27.60;48.20;;;;;;5070006;28;20036;-52
2022/08/23 04:29:40;;;;;;;0.10;0.10;;;27.60;48.20;;;;;;5069618;28;20137;-52
2022/08/23 04:32:11;;;;;;;0.10;0.00;;;27.50;48.10;;;;;;5070038;28;20041;-48
2022/08/23 04:34:39;;;;;;;0.10;0.00;;;27.60;48.20;;;;;;5088727;28;20043;-52
2022/08/23 04:37:07;;;;;;;0.20;0.20;;;27.50;48.20;;;;;;5072736;28;20055;-50
2022/08/23 04:42:16;;;;;;;0.80;0.00;;;27.50;48.20;;;;;;5069973;28;20130;-54
2022/08/23 04:42:22;;;;;;;0.00;0.00;;;27.50;48.20;;;;;;5068431;28;20494;-51
2022/08/23 04:44:49;;;;;;;0.22;0.00;;;27.50;48.30;;;;;;5069939;28;20189;-53
2022/08/23 04:47:19;;;;;;;0.00;0.00;;;27.50;48.30;;;;;;5105393;28;20511;-52
2022/08/23 04:49:46;;;;;;;0.00;0.00;;;27.50;48.30;;;;;;5084616;28;20565;-54
2022/08/23 04:52:14;;;;;;;0.00;0.00;;;27.50;48.30;;;;;;5087060;28;20509;-50
2022/08/23 04:54:41;;;;;;;0.00;0.00;;;27.50;48.30;;;;;;5090001;28;20384;-49
2022/08/23 04:57:24;;;;;;;0.00;0.00;;;27.50;48.40;;;;;;5088838;28;20047;-50
2022/08/23 04:59:51;;;;;;;0.93;0.00;;;27.50;48.40;;;;;;5069686;28;20052;-50
2022/08/23 05:02:19;;;;;;;1.42;0.20;;;27.50;48.40;;;;;;5105335;28;20507;-51
2022/08/23 05:04:47;;;;;;;0.13;0.00;;;27.50;48.40;;;;;;5086177;28;20117;-50
2022/08/23 05:07:15;;;;;;;0.10;0.08;;;27.50;48.40;;;;;;5079595;28;20035;-50
2022/08/23 05:09:43;;;;;;;0.05;0.00;;;27.50;48.40;;;;;;5108186;28;20467;-51
2022/08/23 05:12:11;;;;;;;0.00;0.00;;;27.50;48.50;;;;;;5071476;28;20480;-50
2022/08/23 05:14:38;;;;;;;0.00;0.00;;;27.50;48.50;;;;;;5087692;28;20046;-51
2022/08/23 05:17:05;;;;;;;0.10;0.10;;;27.50;48.50;;;;;;5068895;28;20040;-50
2022/08/23 05:19:37;;;;;;;0.10;0.00;;;27.50;48.50;;;;;;5069270;28;20042;-51
2022/08/23 05:22:04;;;;;;;0.00;0.00;;;27.50;48.50;;;;;;5087175;28;20048;-50
2022/08/23 05:24:51;;;;;;;0.35;0.00;;;27.50;48.50;;;;;;5087438;28;20047;-49
2022/08/23 05:27:18;;;;;;;0.00;0.00;;;27.50;48.60;;;;;;5104239;28;20096;-50
2022/08/23 05:29:45;;;;;;;0.10;0.00;;;27.50;48.60;;;;;;5069058;28;20113;-50
2022/08/23 05:32:12;;;;;;;0.00;0.00;;;27.50;48.60;;;;;;5068968;28;20037;-50
2022/08/23 05:34:40;;;;;;;1.30;0.00;;;27.50;48.60;;;;;;5087157;28;20040;-54
2022/08/23 05:37:10;;;;;;;1.10;0.00;;;27.50;48.60;;;;;;5087615;28;20063;-51
2022/08/23 05:39:40;;;;;;;0.10;0.00;;;27.50;48.60;;;;;;5069397;28;20048;-53
2022/08/23 05:42:12;;;;;;;0.10;0.00;;;27.50;48.60;;;;;;5065171;28;20127;-51
2022/08/23 05:44:39;;;;;;;0.00;0.00;;;27.50;48.70;;;;;;5078076;28;20048;-51
2022/08/23 05:47:10;;;;;;;0.95;0.22;;;27.50;48.70;;;;;;5089534;28;20039;-50
2022/08/23 05:49:43;;;;;;;0.10;0.00;;;27.50;48.70;;;;;;5067666;28;20417;-50
2022/08/23 05:52:12;;;;;;;0.00;0.00;;;27.50;48.70;;;;;;5069296;28;20048;-52
2022/08/23 05:54:41;;;;;;;0.00;0.00;;;27.50;48.70;;;;;;5068877;28;20047;-50
2022/08/23 05:57:44;;;;;;;0.00;0.00;;;27.50;48.70;;;;;;5056892;28;20813;-50
2022/08/23 06:00:14;;;;;;;1.98;0.20;;;27.50;48.80;;;;;;5069423;28;20071;-52
2022/08/23 06:02:48;;;;;;;0.10;0.10;;;27.50;48.80;;;;;;5054460;28;20044;-54
2022/08/23 06:05:18;;;;;;;0.00;0.00;;;27.50;48.80;;;;;;5075061;28;20093;-51
2022/08/23 06:07:46;;;;;;;0.10;0.00;;;27.50;48.80;;;;;;5089626;28;20044;-52
2022/08/23 06:10:13;;;;;;;0.00;0.00;;;27.50;48.80;;;;;;5075714;28;20037;-54
2022/08/23 06:12:43;;;;;;;0.43;0.43;;;27.50;48.90;;;;;;5070599;28;20094;-55
2022/08/23 06:15:11;;;;;;;0.00;0.00;;;27.50;48.90;;;;;;5075560;28;20040;-51
2022/08/23 06:17:38;;;;;;;0.40;0.03;;;27.50;48.90;;;;;;5068605;28;20508;-50
2022/08/23 06:20:06;;;;;;;0.30;0.00;;;27.50;48.90;;;;;;5068642;28;20473;-49
2022/08/23 06:22:40;;;;;;;0.00;0.00;;;27.50;48.90;;;;;;5068801;28;20040;-49
2022/08/23 06:25:08;;;;;;;0.10;0.00;;;27.50;48.90;;;;;;5072804;28;20086;-51
2022/08/23 06:27:51;;;;;;;0.35;0.03;;;27.50;48.90;;;;;;5084276;28;20504;-53
2022/08/23 06:30:19;;;;;;;0.10;0.00;;;27.50;48.90;;;;;;5068107;28;20044;-52
2022/08/23 06:32:47;;;;;;;0.40;0.00;;;27.50;48.90;;;;;;5089780;28;20058;-51
2022/08/23 06:35:32;;;;;;;0.00;0.00;;;27.50;48.90;;;;;;5087888;28;20496;-50
2022/08/23 06:38:05;;;;;;;0.00;0.00;;;27.50;48.90;;;;;;5068474;28;20823;-51
2022/08/23 06:41:03;;;;;;;0.00;0.00;;;27.50;48.90;;;;;;5051742;28;20053;-53
2022/08/23 06:44:00;;;;;;;0.30;0.00;;;27.60;49.60;;;;;;5056322;28;20089;-52
2022/08/23 06:46:32;;;;;;;0.10;0.00;;;27.50;48.90;;;;;;5071744;28;20046;-51
2022/08/23 06:49:03;;;;;;;0.10;0.10;;;27.50;49.00;;;;;;5071543;28;20040;-52
2022/08/23 06:51:33;;;;;;;0.30;0.10;;;27.50;49.00;;;;;;5071378;28;20044;-52
2022/08/23 06:54:27;;;;;;;0.82;0.10;;;27.50;49.00;;;;;;5103510;28;20195;-55
2022/08/23 06:57:09;;;;;;;2.28;0.10;;;27.60;49.10;;;;;;5076072;28;20043;-50
2022/08/23 07:00:00;;;;;;;0.90;0.00;;;27.60;49.10;;;;;;5073559;28;20144;-50
2022/08/23 07:02:56;;;;;;;0.10;0.10;;;27.60;49.10;;;;;;5070416;28;20048;-50
2022/08/23 07:05:42;;;;;;;;;;;27.60;49.10;;;;;;5093818;28;20514;-54
2022/08/23 07:08:25;;;;;;;0.80;0.20;;;27.60;49.00;;;;;;5103975;28;20354;-53
2022/08/23 07:10:56;;;;;;;0.65;0.45;;;27.60;49.20;;;;;;5089169;28;20040;-52
2022/08/23 07:13:23;;;;;;;0.13;0.10;;;27.60;49.20;;;;;;5071253;28;20086;-54
2022/08/23 07:15:50;;;;;;;0.50;0.10;;;27.60;49.20;;;;;;5090568;28;20474;-54
2022/08/23 07:18:20;;;;;;;2.40;0.10;;;27.70;49.20;;;;;;5070873;28;20055;-51
2022/08/23 07:20:47;;;;;;;0.82;0.10;;;27.70;49.20;;;;;;5070512;28;20044;-49
2022/08/23 07:23:16;;;;;;;0.30;0.10;;;27.70;49.20;;;;;;5070210;28;20040;-50
2022/08/23 07:25:43;;;;;;;0.32;0.10;;;27.70;49.10;;;;;;5079892;28;20124;-53
2022/08/23 07:28:15;;;;;;;0.40;0.20;;;27.80;49.20;;;;;;5090998;28;20061;-54
2022/08/23 07:30:42;;;;;;;0.38;0.10;;;27.80;49.00;;;;;;5090735;28;20036;-50
2022/08/23 07:33:10;;;;;;;1.35;0.10;;;27.80;49.00;;;;;;5090722;28;20554;-50
2022/08/23 07:35:56;;;;;;;0.50;0.10;;;27.90;49.10;;;;;;5090946;28;20043;-51
2022/08/23 07:38:23;;;;;;;0.35;0.10;;;27.80;48.90;;;;;;5109028;28;20051;-51
2022/08/23 07:40:50;;;;;;;0.30;0.10;;;27.90;49.00;;;;;;5081449;28;20405;-49
2022/08/23 07:43:19;;;;;;;0.20;0.10;;;27.90;49.00;;;;;;5070107;28;20432;-48
2022/08/23 07:45:49;;;;;;;0.35;0.10;;;27.90;48.90;;;;;;5087555;28;20543;-49
2022/08/23 07:48:16;;;;;;;0.55;0.10;;;27.90;48.90;;;;;;5090425;28;20136;-49
2022/08/23 07:51:02;;;;;;;0.55;0.00;;;28.00;49.00;;;;;;5074272;28;20040;-51
2022/08/23 07:53:31;;;;;;;0.88;0.00;;;28.00;49.00;;;;;;5070378;28;20114;-48
2022/08/23 07:55:58;;;;;;;0.30;0.30;;;28.00;49.00;;;;;;5073377;28;20471;-48
2022/08/23 07:58:45;;;;;;;0.40;0.00;;;28.00;49.00;;;;;;5108723;28;20035;-51
2022/08/23 08:01:31;;;;;;;0.10;0.10;;;28.00;49.00;;;;;;5108845;28;20044;-52
2022/08/23 08:04:00;;;;;;;0.10;0.10;;;28.00;49.10;;;;;;5078559;28;20048;-52
2022/08/23 08:06:33;;;;;;;0.10;0.10;;;28.00;49.10;;;;;;5064852;28;20049;-61
2022/08/23 08:09:01;;;;;;;0.82;0.40;;;28.00;50.20;;;;;;5066967;28;20054;-62
2022/08/23 08:11:30;;;;;;;9.27;0.32;;;28.00;50.20;;;;;;5069875;28;20135;-56
2022/08/23 08:14:03;;;;;;;7.72;0.70;;;28.00;50.60;;;;;;5069506;28;20040;-57
2022/08/23 08:16:34;;;;;;;3.17;0.30;;;28.00;50.90;;;;;;5068640;28;20044;-54
2022/08/23 08:19:05;;;;;;;3.00;0.57;;;28.00;51.80;;;;;;5069413;28;20071;-55
2022/08/23 08:21:51;;;;;;;0.20;0.10;;;28.00;51.30;;;;;;5087366;28;20063;-54
2022/08/23 08:24:28;;;;;;;2.30;0.47;;;28.00;51.40;;;;;;5069707;28;20058;-57
2022/08/23 08:27:03;;;;;;;3.78;0.10;;;28.00;51.70;;;;;;5069033;28;20124;-53
2022/08/23 08:29:32;;;;;;;0.25;0.20;;;28.00;51.70;;;;;;5069520;28;20048;-54
2022/08/23 08:31:59;;;;;;;1.98;0.73;;;28.10;51.80;;;;;;5069135;28;20036;-55
2022/08/23 08:34:26;;;;;;;1.52;0.10;;;28.10;51.80;;;;;;5087421;28;20070;-54
2022/08/23 08:36:55;;;;;;;0.98;0.15;;;28.10;51.80;;;;;;5069255;28;20558;-55
2022/08/23 08:39:28;;;;;;;4.07;0.20;;;28.20;51.90;;;;;;5074728;28;20465;-61
2022/08/23 08:42:31;;;;;;;2.53;0.10;;;28.20;51.80;;;;;;5069803;28;20424;-61
2022/08/23 08:45:03;;;;;;;6.10;0.47;;;28.30;52.30;;;;;;5063567;28;20044;-55
2022/08/23 08:47:40;;;;;;;3.60;0.60;;;28.30;51.70;;;;;;5069169;28;20040;-55
2022/08/23 08:50:15;;;;;;;0.65;0.20;;;28.40;51.80;;;;;;5068062;28;20423;-58
2022/08/23 08:52:47;;;;;;;1.80;0.20;;;28.40;51.60;;;;;;5073471;28;20031;-57
2022/08/23 08:55:26;;;;;;;1.38;0.30;;;28.50;51.60;;;;;;5073447;28;20040;-56
2022/08/23 08:57:55;;;;;;;1.58;0.13;;;28.50;51.50;;;;;;5068768;28;20032;-53
2022/08/23 09:00:26;;;;;;;1.88;0.10;;;28.60;51.50;;;;;;5067643;28;20040;-55
2022/08/23 09:02:54;;;;;;;0.88;0.15;;;28.60;51.40;;;;;;5068773;28;20040;-52
2022/08/23 09:05:26;;;;;;;4.07;0.10;;;28.70;51.30;;;;;;5068610;28;20416;-54
2022/08/23 09:08:06;;;;;;;1.75;0.30;;;28.70;51.20;;;;;;5068524;28;20044;-53
2022/08/23 09:10:52;;;;;;;0.40;0.17;;;28.80;51.10;;;;;;5056300;28;20117;-54
2022/08/23 09:13:45;;;;;;;0.30;0.10;;;28.90;51.00;;;;;;5060831;28;20036;-55
2022/08/23 09:16:24;;;;;;;0.22;0.13;;;29.00;51.50;;;;;;5068151;28;20520;-55
2022/08/23 09:18:53;;;;;;;1.35;0.10;;;29.00;50.80;;;;;;5072079;28;20036;-65
2022/08/23 09:21:21;;;;;;;1.75;0.10;;;29.00;50.70;;;;;;5074046;28;20107;-61
2022/08/23 09:23:50;;;;;;;0.47;0.10;;;29.10;50.60;;;;;;5073130;28;20040;-61
2022/08/23 09:26:29;;;;;;;2.85;0.20;;;29.10;50.60;;;;;;5073231;28;20105;-61
2022/08/23 09:29:01;;;;;;;0.10;0.10;;;29.20;51.10;;;;;;5061676;28;20048;-62
2022/08/23 09:31:42;;;;;;;2.10;0.10;;;29.30;50.40;;;;;;5065619;28;20040;-59
2022/08/23 09:34:16;;;;;;;4.20;0.10;;;29.30;50.20;;;;;;5071908;28;20044;-59
2022/08/23 09:37:07;;;;;;;0.95;0.00;;;29.30;50.10;;;;;;5072259;28;20098;-62
2022/08/23 09:39:38;;;;;;;1.40;0.05;;;29.40;50.00;;;;;;5072364;28;20123;-63
2022/08/23 09:42:09;;;;;;;0.63;0.10;;;29.40;50.00;;;;;;5072710;28;20044;-60
2022/08/23 09:44:39;;;;;;;0.28;0.10;;;29.40;49.80;;;;;;5091119;28;20086;-51
2022/08/23 09:47:12;;;;;;;0.32;0.10;;;29.50;49.80;;;;;;5049146;28;20071;-56
2022/08/23 09:49:47;;;;;;;1.23;0.32;;;29.50;49.80;;;;;;5075079;28;20040;-57
2022/08/23 09:52:24;;;;;;;2.10;0.10;;;29.60;49.80;;;;;;5072414;28;20040;-53
2022/08/23 09:55:01;;;;;;;2.38;0.10;;;29.60;49.70;;;;;;5072744;28;20048;-55
2022/08/23 09:57:33;;;;;;;0.05;0.05;;;29.60;49.60;;;;;;5072077;28;20397;-56
2022/08/23 10:00:02;;;;;;;0.10;0.10;;;29.60;49.70;;;;;;5072349;28;20051;-56
2022/08/23 10:02:41;;;;;;;1.52;0.20;;;29.70;49.60;;;;;;5089022;28;20105;-52
2022/08/23 10:05:18;;;;;;;1.85;0.03;;;29.70;49.50;;;;;;5055536;28;20036;-56
2022/08/23 10:07:55;;;;;;;0.20;0.00;;;29.80;49.60;;;;;;5072048;28;20504;-50
2022/08/23 10:10:28;;;;;;;1.38;0.32;;;29.90;49.60;;;;;;5057345;28;20408;-55
2022/08/23 10:13:00;;;;;;;0.22;0.00;;;30.10;49.50;;;;;;5071841;28;20420;-55
2022/08/23 10:15:46;;;;;;;0.03;0.00;;;30.20;49.40;;;;;;5071727;28;20079;-55
2022/08/23 10:18:26;;;;;;;0.28;0.28;;;30.30;49.60;;;;;;5071432;28;20524;-55
2022/08/23 10:21:01;;;;;;;1.55;0.00;;;30.60;48.70;;;;;;5071841;28;20040;-58
2022/08/23 10:23:43;;;;;;;0.00;0.00;;;30.70;48.40;;;;;;5064956;28;20040;-58
2022/08/23 10:26:21;;;;;;;0.57;0.00;;;31.00;48.00;;;;;;5100485;28;20079;-61
2022/08/23 10:32:02;;;;;;;0.30;0.00;;;31.50;47.30;;;;;;5071413;28;20044;-61
2022/08/23 10:35:03;;;;;;;1.33;0.10;;;31.80;46.60;;;;;;5057112;28;20767;-61
2022/08/23 10:37:55;;;;;;;0.10;0.00;;;32.10;46.30;;;;;;5064389;28;20048;-61
2022/08/23 10:40:28;;;;;;;0.77;0.10;;;32.30;45.70;;;;;;5074548;28;20045;-58
2022/08/23 10:43:12;;;;;;;1.08;0.43;;;32.50;45.40;;;;;;5071390;28;20048;-63
2022/08/23 10:45:43;;;;;;;0.30;0.10;;;32.60;45.50;;;;;;5079406;28;20065;-62
2022/08/23 10:48:27;;;;;;;0.10;0.00;;;32.80;44.70;;;;;;5085819;28;20458;-64
2022/08/23 10:51:00;;;;;;;0.10;0.10;;;32.90;44.30;;;;;;5071198;28;20048;-64
2022/08/23 10:53:36;;;;;;;1.00;0.43;;;33.00;43.90;;;;;;5071647;28;20135;-65
2022/08/23 10:56:06;;;;;;;0.45;0.03;;;33.10;43.60;;;;;;5054688;28;20058;-64
2022/08/23 10:58:50;;;;;;;0.15;0.00;;;33.10;43.50;;;;;;5071433;28;20078;-55
2022/08/23 11:01:21;;;;;;;1.60;0.20;;;33.20;43.40;;;;;;5073262;28;20092;-53
2022/08/23 11:03:59;;;;;;;0.08;0.08;;;33.30;43.00;;;;;;5070868;28;20040;-55
2022/08/23 11:06:54;;;;;;;0.43;0.10;;;33.50;42.90;;;;;;5084985;28;20040;-54
2022/08/23 11:09:54;;;;;;;0.00;0.00;;;33.60;42.60;;;;;;5088769;28;20044;-54
2022/08/23 11:12:33;;;;;;;0.00;0.00;;;33.70;42.20;;;;;;5074452;28;20040;-55
2022/08/23 11:15:25;;;;;;;0.10;0.10;;;33.80;42.00;;;;;;5070682;28;20044;-54
2022/08/23 11:17:59;;;;;;;0.15;0.00;;;33.90;42.10;;;;;;5071257;28;20044;-54
2022/08/23 11:21:10;;;;;;;0.10;0.00;;;34.00;41.40;;;;;;5075004;28;20044;-54
2022/08/23 11:23:56;;;;;;;2.38;0.00;;;34.10;41.10;;;;;;5071093;28;20044;-52
2022/08/23 11:27:01;;;;;;;0.00;0.00;;;34.20;40.90;;;;;;5055245;28;20033;-56
2022/08/23 11:29:33;;;;;;;0.00;0.00;;;34.40;40.80;;;;;;5070650;28;20454;-55
2022/08/23 11:32:30;;;;;;;0.00;0.00;;;34.50;40.30;;;;;;5088196;28;20044;-54
2022/08/23 11:35:09;;;;;;;0.05;0.00;;;34.60;40.50;;;;;;5070857;28;20044;-55
2022/08/23 11:37:57;;;;;;;0.10;0.10;;;34.70;39.80;;;;;;5071053;28;20068;-65
2022/08/23 11:40:59;;;;;;;0.00;0.00;;;34.90;39.90;;;;;;5053276;28;20773;-53
2022/08/23 11:43:35;;;;;;;1.85;0.10;;;35.00;39.60;;;;;;5029202;28;20053;-55
2022/08/23 11:46:31;;;;;;;0.00;0.00;;;35.20;39.50;;;;;;5046079;28;20102;-55
2022/08/23 11:49:57;;;;;;;0.00;0.00;;;35.40;39.20;;;;;;5015968;28;20068;-56
2022/08/23 11:52:37;;;;;;;0.03;0.03;;;35.50;38.90;;;;;;5024968;28;20068;-55
2022/08/23 11:55:24;;;;;;;0.03;0.03;;;35.60;38.60;;;;;;5045599;28;20045;-67
2022/08/23 11:58:16;;;;;;;0.00;0.00;;;35.70;38.30;;;;;;5041104;28;20057;-64
2022/08/23 12:01:04;;;;;;;0.00;0.00;;;35.70;38.00;;;;;;5029698;28;20064;-64
2022/08/23 12:03:36;;;;;;;0.43;0.03;;;35.70;38.00;;;;;;5045222;28;20049;-62
2022/08/23 12:06:14;;;;;;;0.00;0.00;;;35.80;37.80;;;;;;5046586;28;20064;-62
2022/08/23 12:08:53;;;;;;;7.93;0.70;;;35.80;37.60;;;;;;5042395;28;20045;-64
2022/08/23 12:11:23;;;;;;;0.10;0.10;;;35.90;37.60;;;;;;5046008;28;20049;-60
2022/08/23 12:13:58;;;;;;;0.17;0.00;;;35.80;37.70;;;;;;5043734;28;20053;-60
2022/08/23 12:16:37;;;;;;;1.88;0.00;;;35.70;37.70;;;;;;5044052;28;20079;-60
2022/08/23 12:19:11;;;;;;;0.65;0.00;;;35.60;37.80;;;;;;5080266;28;20078;-60
2022/08/23 12:21:46;;;;;;;0.00;0.00;;;35.60;37.90;;;;;;5075217;28;20097;-59
2022/08/23 12:24:21;;;;;;;0.00;0.00;;;35.50;38.00;;;;;;5071097;28;20044;-74
2022/08/23 12:26:58;;;;;;;0.00;0.00;;;35.50;38.10;;;;;;5090556;28;20036;-67
2022/08/23 12:29:35;;;;;;;0.00;0.00;;;35.50;38.10;;;;;;5089233;28;20420;-65
2022/08/23 12:32:11;;;;;;;0.00;0.00;;;35.50;38.20;;;;;;5084660;28;20519;-56
2022/08/23 12:34:51;;;;;;;1.35;0.10;;;35.50;38.20;;;;;;5077736;28;20523;-53
2022/08/23 12:37:26;;;;;;;0.00;0.00;;;35.40;37.50;;;;;;5084724;28;20476;-56
2022/08/23 12:39:56;;;;;;;0.03;0.03;;;35.30;37.50;;;;;;5087287;28;20059;-49
2022/08/23 12:42:27;;;;;;;0.47;0.00;;;35.20;37.50;;;;;;5070741;28;20043;-49
2022/08/23 12:45:07;;;;;;;0.00;0.00;;;35.10;37.90;;;;;;5087189;28;20495;-48
2022/08/23 12:47:34;;;;;;;0.20;0.00;;;34.90;37.80;;;;;;5086748;28;20090;-48
2022/08/23 12:50:05;;;;;;;4.20;0.00;;;34.80;38.20;;;;;;5086807;28;20040;-52
2022/08/23 12:52:35;;;;;;;0.00;0.00;;;34.60;38.60;;;;;;5095627;28;20070;-49
2022/08/23 12:55:03;;;;;;;0.03;0.03;;;34.50;38.80;;;;;;5096704;28;20047;-56
2022/08/23 12:57:35;;;;;;;0.15;0.00;;;34.50;39.20;;;;;;5110263;28;20079;-56
2022/08/23 13:00:12;;;;;;;0.00;0.00;;;34.50;38.60;;;;;;5076358;28;20040;-55
2022/08/23 13:02:42;;;;;;;0.00;0.00;;;34.40;39.00;;;;;;5094866;28;20532;-58
2022/08/23 13:05:13;;;;;;;0.35;0.00;;;34.30;39.20;;;;;;5093668;28;20028;-58
2022/08/23 13:07:41;;;;;;;0.20;0.00;;;34.30;38.40;;;;;;5099653;28;20047;-61
2022/08/23 13:10:10;;;;;;;0.00;0.00;;;34.20;38.30;;;;;;5094235;28;20136;-57
2022/08/23 13:12:38;;;;;;;0.20;0.00;;;34.10;38.10;;;;;;5093697;28;20052;-58
2022/08/23 13:15:08;;;;;;;0.00;0.00;;;34.00;38.00;;;;;;5094696;28;20042;-61
2022/08/23 13:17:38;;;;;;;1.08;0.00;;;33.90;38.00;;;;;;5094899;28;20067;-59
2022/08/23 13:20:23;;;;;;;0.00;0.00;;;33.80;38.80;;;;;;5093835;28;20048;-58
2022/08/23 13:23:02;;;;;;;0.43;0.10;;;33.80;38.50;;;;;;5093715;28;20129;-63
2022/08/23 13:25:33;;;;;;;0.00;0.00;;;33.70;38.70;;;;;;5101008;28;20572;-61
2022/08/23 13:28:03;;;;;;;0.47;0.00;;;33.60;39.00;;;;;;5096507;28;20144;-58
2022/08/23 13:30:34;;;;;;;0.20;0.00;;;33.60;39.50;;;;;;5093364;28;20055;-60